Time;durP1;ratioP1;P1;durP2;ratioP2;P2;SDS_P1;SDS_P2;PMS_P1;PMS_P2;Temp;Humidity;BMP_temperature;BMP_pressure;BME280_temperature;BME280_humidity;BME280_pressure;Samples;Min_cycle;Max_cycle;Signal;HPM_P1;HPM_P2
2021/12/13 00:02:35;;;;;;;6.15;1.73;;;24.40;99.90;;;;;;5114452;27;20039;-75
2021/12/13 00:05:02;;;;;;;7.95;1.90;;;24.60;99.90;;;;;;5137214;27;20109;-75
2021/12/13 00:07:33;;;;;;;4.88;1.98;;;24.50;99.90;;;;;;5137457;27;20549;-74
2021/12/13 00:10:08;;;;;;;5.72;1.63;;;24.60;99.90;;;;;;5135436;27;20051;-75
2021/12/13 00:12:40;;;;;;;6.68;1.63;;;24.60;99.90;;;;;;5137157;27;20019;-75
2021/12/13 00:15:14;;;;;;;6.03;1.50;;;24.90;99.90;;;;;;5137048;27;20573;-75
2021/12/13 00:17:53;;;;;;;6.68;1.52;;;24.70;99.90;;;;;;5136662;27;20023;-74
2021/12/13 00:20:28;;;;;;;4.00;1.40;;;24.90;99.90;;;;;;5136680;27;20026;-75
2021/12/13 00:23:01;;;;;;;7.43;1.60;;;25.20;99.90;;;;;;5136726;27;20479;-74
2021/12/13 00:25:30;;;;;;;5.82;1.33;;;25.00;99.90;;;;;;5135151;27;20514;-74
2021/12/13 00:28:07;;;;;;;8.27;1.70;;;24.90;99.90;;;;;;5137024;27;20417;-75
2021/12/13 00:30:53;;;;;;;5.72;1.50;;;25.10;99.90;;;;;;5135336;27;20023;-74
2021/12/13 00:33:55;;;;;;;6.13;1.70;;;25.30;99.90;;;;;;5136307;27;20023;-76
2021/12/13 00:36:52;;;;;;;5.45;1.58;;;25.50;99.90;;;;;;5100294;27;20041;-75
2021/12/13 00:39:36;;;;;;;6.03;1.38;;;25.20;99.90;;;;;;5136281;27;20023;-74
2021/12/13 00:42:05;;;;;;;6.45;1.88;;;24.30;99.90;;;;;;5136317;27;20450;-74
2021/12/13 00:45:05;;;;;;;6.00;1.67;;;24.60;99.90;;;;;;5134807;27;20023;-74
2021/12/13 00:47:34;;;;;;;7.05;2.00;;;24.90;99.90;;;;;;5135858;27;20023;-75
2021/12/13 00:50:30;;;;;;;7.88;2.10;;;25.50;99.90;;;;;;5134601;27;20032;-74
2021/12/13 00:52:57;;;;;;;10.07;2.00;;;;;;;;;;5136366;27;20409;-74
2021/12/13 00:55:31;;;;;;;8.23;2.33;;;;;;;;;;5136059;27;20498;-75
2021/12/13 00:58:04;;;;;;;7.47;2.42;;;;;;;;;;5135920;27;20032;-75
2021/12/13 01:00:35;;;;;;;7.30;2.15;;;;;;;;;;5135863;27;20031;-75
2021/12/13 01:03:04;;;;;;;8.93;2.47;;;;;;;;;;5134285;27;20131;-75
2021/12/13 01:05:49;;;;;;;8.85;2.10;;;;;;;;;;5134392;27;20050;-75
2021/12/13 01:08:16;;;;;;;7.68;1.88;;;;;;;;;;5135381;27;20023;-75
2021/12/13 01:10:56;;;;;;;7.22;1.50;;;;;;;;;;5134383;27;20021;-75
2021/12/13 01:13:28;;;;;;;9.10;2.30;;;;;;;;;;5135727;27;20022;-75
2021/12/13 01:16:21;;;;;;;9.82;2.38;;;;;;;;;;5135566;27;20064;-75
2021/12/13 01:21:31;;;;;;;9.98;1.83;;;;;;;;;;5072288;28;20044;-75
2021/12/13 01:24:06;;;;;;;6.40;1.50;;;;;;;;;;5073707;28;20093;-75
2021/12/13 01:26:39;;;;;;;7.55;1.55;;;;;;;;;;5073699;28;20016;-75
2021/12/13 01:29:09;;;;;;;6.97;1.67;;;;;;;;;;5073762;28;20021;-76
2021/12/13 01:31:39;;;;;;;8.32;2.00;;;;;;;;;;5072144;28;20111;-75
2021/12/13 01:34:07;;;;;;;6.95;1.88;;;;;;;;;;5072129;28;20028;-76
2021/12/13 01:36:42;;;;;;;6.47;2.08;;;;;;;;;;5072091;28;20020;-76
2021/12/13 01:39:13;;;;;;;7.63;1.60;;;;;;;;;;5074606;28;20027;-76
2021/12/13 01:41:42;;;;;;;8.52;1.98;;;;;;;;;;5072062;28;20058;-75
2021/12/13 01:44:11;;;;;;;6.15;1.52;;;;;;;;;;5073276;28;20388;-75
2021/12/13 01:46:39;;;;;;;8.88;1.73;;;;;;;;;;5073304;28;20476;-76
2021/12/13 01:49:08;;;;;;;7.55;1.73;;;;;;;;;;5071678;28;20040;-76
2021/12/13 01:51:35;;;;;;;7.18;1.95;;;;;;;;;;5072041;28;20423;-75
2021/12/13 01:54:10;;;;;;;7.65;1.65;;;;;;;;;;5073272;28;20020;-76
2021/12/13 01:56:58;;;;;;;7.75;1.83;;;;;;;;;;5071923;28;20025;-76
2021/12/13 01:59:52;;;;;;;6.70;1.65;;;;;;;;;;5073075;28;20021;-76
2021/12/13 02:02:18;;;;;;;9.63;2.00;;;;;;;;;;5071973;28;20569;-76
2021/12/13 02:04:46;;;;;;;8.07;1.73;;;;;;;;;;5071660;28;20047;-75
2021/12/13 02:07:14;;;;;;;10.23;2.10;;;;;;;;;;5073002;28;20108;-77
2021/12/13 02:09:42;;;;;;;9.90;2.33;;;;;;;;;;5071568;28;20029;-76
2021/12/13 02:12:15;;;;;;;9.05;1.83;;;;;;;;;;5071713;28;20035;-76
2021/12/13 02:14:48;;;;;;;9.27;2.20;;;;;;;;;;5071593;28;20021;-76
2021/12/13 02:17:20;;;;;;;9.57;2.10;;;;;;;;;;5073069;28;20024;-76
2021/12/13 02:19:47;;;;;;;8.07;2.17;;;;;;;;;;5072740;28;20044;-76
2021/12/13 02:22:20;;;;;;;7.43;2.45;;;;;;;;;;5071579;28;20043;-75
2021/12/13 02:24:49;;;;;;;12.15;2.47;;;;;;;;;;5071400;28;20103;-75
2021/12/13 02:27:21;;;;;;;10.18;2.35;;;;;;;;;;5071434;28;20043;-74
2021/12/13 02:29:52;;;;;;;8.73;2.08;;;;;;;;;;5072643;28;20345;-77
2021/12/13 02:32:22;;;;;;;9.20;2.13;;;;;;;;;;5071384;28;20530;-75
2021/12/13 02:34:50;;;;;;;7.65;2.30;;;;;;;;;;5072863;28;20016;-75
2021/12/13 02:37:17;;;;;;;9.38;1.80;;;;;;;;;;5071374;28;20115;-75
2021/12/13 02:39:49;;;;;;;7.18;2.00;;;;;;;;;;5072635;28;20026;-75
2021/12/13 02:42:18;;;;;;;9.20;1.90;;;;;;;;;;5072642;28;20382;-76
2021/12/13 02:44:56;;;;;;;7.43;2.03;;;;;;;;;;5072722;28;20024;-75
2021/12/13 02:47:32;;;;;;;9.80;2.30;;;;;;;;;;5071312;28;20026;-76
2021/12/13 02:50:00;;;;;;;7.32;1.90;;;;;;;;;;5071063;28;20039;-76
2021/12/13 02:52:27;;;;;;;8.60;2.13;;;;;;;;;;5071237;28;20032;-75
2021/12/13 02:55:00;;;;;;;7.13;2.45;;;;;;;;;;5072523;28;20020;-75
2021/12/13 02:57:33;;;;;;;9.75;2.15;;;;;;;;;;5072681;28;20025;-76
2021/12/13 03:00:04;;;;;;;7.30;1.70;;;;;;;;;;5072463;28;20021;-76
2021/12/13 03:02:34;;;;;;;6.88;1.48;;;;;;;;;;5072661;28;20054;-76
2021/12/13 03:05:01;;;;;;;8.33;2.07;;;;;;;;;;5072534;28;20017;-76
2021/12/13 03:07:34;;;;;;;6.97;1.80;;;;;;;;;;5071160;28;20373;-77
2021/12/13 03:10:04;;;;;;;6.97;1.63;;;;;;;;;;5071219;28;20021;-76
2021/12/13 03:12:31;;;;;;;9.07;1.67;;;;;;;;;;5072522;28;20025;-76
2021/12/13 03:15:00;;;;;;;8.25;1.85;;;;;;;;;;5074560;28;20024;-76
2021/12/13 03:17:32;;;;;;;5.90;1.90;;;;;;;;;;5076166;28;20054;-77
2021/12/13 03:20:17;;;;;;;9.15;2.17;;;;;;;;;;5074388;28;20037;-76
2021/12/13 03:22:53;;;;;;;8.23;2.10;;;;;;;;;;5074603;28;20031;-77
2021/12/13 03:25:39;;;;;;;7.57;1.73;;;;;;;;;;5075850;28;20038;-77
2021/12/13 03:28:06;;;;;;;8.23;1.92;;;;;;;;;;5074547;28;20021;-76
2021/12/13 03:30:48;;;;;;;11.20;2.70;;;26.50;99.90;;;;;;5074284;28;20052;-77
2021/12/13 03:33:21;;;;;;;7.20;1.63;;;27.10;99.90;;;;;;5076008;28;20017;-76
2021/12/13 03:35:56;;;;;;;9.98;2.45;;;27.30;99.90;;;;;;5074481;28;20032;-76
2021/12/13 03:38:29;;;;;;;7.55;1.88;;;26.90;99.90;;;;;;5075948;28;20017;-76
2021/12/13 03:41:03;;;;;;;6.25;1.38;;;26.70;99.90;;;;;;5074298;28;20025;-76
2021/12/13 03:43:40;;;;;;;7.40;2.17;;;26.80;99.90;;;;;;5074360;28;20017;-76
2021/12/13 03:46:10;;;;;;;10.60;2.17;;;26.60;99.90;;;;;;5075638;28;20130;-76
2021/12/13 03:48:39;;;;;;;6.57;1.55;;;26.30;99.90;;;;;;5074038;28;20031;-77
2021/12/13 03:51:13;;;;;;;8.82;1.83;;;26.30;99.90;;;;;;5075624;28;20029;-75
2021/12/13 03:53:43;;;;;;;11.30;2.80;;;26.60;99.90;;;;;;5075649;28;20411;-77
2021/12/13 03:56:12;;;;;;;;;;;26.20;99.90;;;;;;5075874;28;20039;-76
2021/12/13 03:58:45;;;;;;;5.90;1.60;;;26.60;99.90;;;;;;5075425;28;19953;-76
2021/12/13 04:01:24;;;;;;;7.75;1.90;;;26.80;99.90;;;;;;5075566;28;20101;-76
2021/12/13 04:03:56;;;;;;;7.22;1.95;;;26.80;99.90;;;;;;5074047;28;20028;-76
2021/12/13 04:06:24;;;;;;;6.95;2.20;;;26.50;99.90;;;;;;5075254;28;20050;-76
2021/12/13 04:08:55;;;;;;;6.60;2.05;;;26.60;99.90;;;;;;5075272;28;20056;-76
2021/12/13 04:11:25;;;;;;;10.45;2.00;;;26.70;99.90;;;;;;5075327;28;20434;-76
2021/12/13 04:14:22;;;;;;;7.50;1.38;;;26.60;99.90;;;;;;5073957;28;20028;-76
2021/12/13 04:17:07;;;;;;;7.90;1.90;;;26.40;99.90;;;;;;5073771;28;20170;-76
2021/12/13 04:19:59;;;;;;;7.57;1.90;;;26.10;99.90;;;;;;5074939;28;20044;-76
2021/12/13 04:22:31;;;;;;;7.40;1.65;;;26.00;99.90;;;;;;5065329;28;20037;-77
2021/12/13 04:25:07;;;;;;;8.75;1.70;;;26.30;99.90;;;;;;5074488;28;20032;-76
2021/12/13 04:28:00;;;;;;;7.28;1.90;;;26.50;99.90;;;;;;5074934;28;20503;-75
2021/12/13 04:30:46;;;;;;;7.50;1.70;;;26.40;99.90;;;;;;5064974;28;20444;-76
2021/12/13 04:33:33;;;;;;;7.38;1.60;;;26.40;99.90;;;;;;5073329;28;20021;-76
2021/12/13 04:36:09;;;;;;;11.25;2.38;;;26.20;99.90;;;;;;5073152;28;20028;-77
2021/12/13 04:38:48;;;;;;;7.72;2.30;;;26.30;99.90;;;;;;5073143;28;20115;-77
2021/12/13 04:41:29;;;;;;;9.83;2.33;;;26.50;99.90;;;;;;5073249;28;20020;-76
2021/12/13 04:44:05;;;;;;;10.70;2.03;;;26.40;99.90;;;;;;5074528;28;20028;-76
2021/12/13 04:46:35;;;;;;;9.93;2.33;;;26.20;99.90;;;;;;5074462;28;20074;-77
2021/12/13 04:49:09;;;;;;;7.18;2.70;;;26.20;99.90;;;;;;5073071;28;20025;-76
2021/12/13 04:52:00;;;;;;;9.18;2.05;;;26.10;99.90;;;;;;5073252;28;20111;-76
2021/12/13 04:54:32;;;;;;;7.95;2.10;;;26.30;99.90;;;;;;5074194;28;20025;-75
2021/12/13 04:57:00;;;;;;;7.78;2.00;;;26.10;99.90;;;;;;5072666;28;20028;-77
2021/12/13 04:59:29;;;;;;;9.45;2.03;;;25.90;99.90;;;;;;5073794;28;20035;-76
2021/12/13 05:01:59;;;;;;;6.18;1.70;;;26.10;99.90;;;;;;5073859;28;20430;-76
2021/12/13 05:04:29;;;;;;;6.72;1.30;;;26.20;99.90;;;;;;5074047;28;20108;-77
2021/12/13 05:07:00;;;;;;;7.43;1.38;;;26.10;99.90;;;;;;5072654;28;20036;-77
2021/12/13 05:09:27;;;;;;;;;;;26.10;99.90;;;;;;5072999;28;20067;-75
2021/12/13 05:12:15;;;;;;;8.52;2.13;;;26.30;99.90;;;;;;5073752;28;20004;-77
2021/12/13 05:14:56;;;;;;;6.10;1.83;;;26.20;99.90;;;;;;5072181;28;20016;-76
2021/12/13 05:17:40;;;;;;;10.07;1.92;;;26.40;99.90;;;;;;5073771;28;20024;-77
2021/12/13 05:20:20;;;;;;;8.07;1.65;;;26.40;99.90;;;;;;5073261;28;20052;-77
2021/12/13 05:23:07;;;;;;;6.60;1.88;;;26.70;99.90;;;;;;5073440;28;20071;-76
2021/12/13 05:25:45;;;;;;;8.02;2.00;;;26.70;99.90;;;;;;5071857;28;20443;-77
2021/12/13 05:28:19;;;;;;;5.30;1.58;;;27.00;99.90;;;;;;5073222;28;20020;-76
2021/12/13 05:30:58;;;;;;;4.85;1.73;;;26.90;99.90;;;;;;5073335;28;20538;-76
2021/12/13 05:33:31;;;;;;;7.90;1.73;;;26.90;99.90;;;;;;5073216;28;20480;-76
2021/12/13 05:36:02;;;;;;;8.30;1.88;;;27.00;99.90;;;;;;5071718;28;20476;-76
2021/12/13 05:38:29;;;;;;;9.50;2.80;;;27.10;99.90;;;;;;5072569;28;20026;-76
2021/12/13 05:41:00;;;;;;;7.55;1.83;;;27.50;99.90;;;;;;5071801;28;20685;-76
2021/12/13 05:43:29;;;;;;;;;;;26.90;99.90;;;;;;5073578;28;20024;-76
2021/12/13 05:46:13;;;;;;;7.55;1.40;;;26.80;99.90;;;;;;5071912;28;20372;-76
2021/12/13 05:48:45;;;;;;;4.75;1.33;;;27.10;99.90;;;;;;5073283;28;20472;-76
2021/12/13 05:51:27;;;;;;;8.50;1.60;;;27.20;99.90;;;;;;5071953;28;20027;-77
2021/12/13 05:54:05;;;;;;;7.03;1.80;;;27.00;99.90;;;;;;5071743;28;20025;-76
2021/12/13 05:56:41;;;;;;;7.85;1.55;;;27.00;99.90;;;;;;5073252;28;20361;-76
2021/12/13 05:59:30;;;;;;;6.45;1.55;;;27.40;99.90;;;;;;5073134;28;20051;-76
2021/12/13 06:02:17;;;;;;;8.45;1.73;;;27.20;99.90;;;;;;5073131;28;20031;-76
2021/12/13 06:05:07;;;;;;;5.80;1.35;;;27.20;99.90;;;;;;5071532;28;20081;-76
2021/12/13 06:07:39;;;;;;;6.60;1.35;;;27.10;99.90;;;;;;5071761;28;20119;-76
2021/12/13 06:10:18;;;;;;;6.22;1.70;;;27.00;99.90;;;;;;5071469;28;20119;-76
2021/12/13 06:13:03;;;;;;;6.57;1.73;;;27.10;99.90;;;;;;5073158;28;20024;-76
2021/12/13 06:15:40;;;;;;;6.97;1.23;;;27.50;99.90;;;;;;5071581;28;20021;-77
2021/12/13 06:18:16;;;;;;;5.72;1.52;;;27.90;99.90;;;;;;5072926;28;20047;-77
2021/12/13 06:20:54;;;;;;;6.57;1.10;;;27.50;99.90;;;;;;5072441;28;20044;-76
2021/12/13 06:23:28;;;;;;;6.03;1.52;;;27.90;99.90;;;;;;5071452;28;20115;-76
2021/12/13 06:26:15;;;;;;;5.25;1.52;;;28.00;99.90;;;;;;5072871;28;20099;-76
2021/12/13 06:28:53;;;;;;;6.40;1.40;;;28.10;99.90;;;;;;5072597;28;20030;-76
2021/12/13 06:31:22;;;;;;;5.68;1.55;;;28.50;99.70;;;;;;5072770;28;20061;-76
2021/12/13 06:34:05;;;;;;;9.50;1.70;;;28.40;99.60;;;;;;5072867;28;20383;-76
2021/12/13 06:36:45;;;;;;;6.07;1.38;;;28.30;99.10;;;;;;5072656;28;20116;-77
2021/12/13 06:39:18;;;;;;;6.63;1.42;;;28.60;98.80;;;;;;5073542;28;20024;-76
2021/12/13 06:41:49;;;;;;;4.40;1.10;;;29.10;98.60;;;;;;5073135;28;20035;-78
2021/12/13 06:44:31;;;;;;;6.47;1.75;;;29.70;98.00;;;;;;5074177;28;20107;-76
2021/12/13 06:47:25;;;;;;;7.25;1.95;;;29.40;98.70;;;;;;5071320;28;20032;-75
2021/12/13 06:49:58;;;;;;;3.88;1.17;;;28.80;99.00;;;;;;5073701;28;20040;-76
2021/12/13 06:52:32;;;;;;;6.63;1.67;;;28.20;99.60;;;;;;5075649;28;20017;-77
2021/12/13 06:55:01;;;;;;;6.85;1.58;;;;;;;;;;5075997;28;20021;-76
2021/12/13 06:57:31;;;;;;;7.65;1.50;;;;;;;;;;5077114;28;20023;-77
2021/12/13 06:59:59;;;;;;;;;;;;;;;;;;5075938;28;20513;-77
2021/12/13 07:02:27;;;;;;;7.63;1.52;;;;;;;;;;5075378;28;19905;-76
2021/12/13 07:04:57;;;;;;;5.35;1.23;;;;;;;;;;5077004;28;20047;-76
2021/12/13 07:07:26;;;;;;;4.97;1.10;;;;;;;;;;5074957;28;20094;-77
2021/12/13 07:09:58;;;;;;;5.47;1.38;;;28.80;99.40;;;;;;5074911;28;20035;-75
2021/12/13 07:12:28;;;;;;;7.03;1.40;;;28.50;99.20;;;;;;5076434;28;20108;-76
2021/12/13 07:14:55;;;;;;;;;;;28.50;99.40;;;;;;5075303;28;20111;-76
2021/12/13 07:17:35;;;;;;;4.47;1.30;;;28.70;99.20;;;;;;5076233;28;19908;-77
2021/12/13 07:20:16;;;;;;;7.93;1.80;;;28.10;99.70;;;;;;5076094;28;20086;-77
2021/12/13 07:22:44;;;;;;;5.53;1.38;;;27.50;99.90;;;;;;5074742;28;20111;-76
2021/12/13 07:25:16;;;;;;;8.05;1.65;;;27.00;99.90;;;;;;5075191;28;20032;-78
2021/12/13 07:27:50;;;;;;;4.53;1.40;;;26.70;99.90;;;;;;5076321;28;20052;-78
2021/12/13 07:30:33;;;;;;;8.43;1.80;;;26.20;99.90;;;;;;5074987;28;20082;-79
2021/12/13 07:33:11;;;;;;;4.32;1.30;;;25.60;99.90;;;;;;5082478;28;20028;-79
2021/12/13 07:35:48;;;;;;;8.20;1.58;;;25.50;99.90;;;;;;5077559;28;20020;-78
2021/12/13 07:38:18;;;;;;;5.78;1.33;;;25.00;99.90;;;;;;5078591;28;20477;-77
2021/12/13 07:40:50;;;;;;;7.32;1.88;;;24.20;99.90;;;;;;5075645;28;20029;-78
2021/12/13 07:43:28;;;;;;;5.38;1.60;;;24.00;99.90;;;;;;5075673;28;20032;-77
2021/12/13 07:46:05;;;;;;;5.82;1.35;;;23.90;99.90;;;;;;5075954;28;20036;-77
2021/12/13 07:48:51;;;;;;;7.10;1.40;;;23.50;99.90;;;;;;5075449;28;20179;-76
2021/12/13 07:51:35;;;;;;;8.07;1.80;;;23.20;99.90;;;;;;5075829;28;20392;-76
2021/12/13 07:54:13;;;;;;;7.85;1.90;;;23.30;99.90;;;;;;5076129;28;20027;-78
2021/12/13 07:56:50;;;;;;;8.63;1.55;;;23.10;99.90;;;;;;5075752;28;20472;-78
2021/12/13 07:59:37;;;;;;;12.18;1.60;;;23.20;99.90;;;;;;5075578;28;20499;-76
2021/12/13 08:02:17;;;;;;;11.88;1.67;;;23.30;99.90;;;;;;5074664;28;20031;-78
2021/12/13 08:04:44;;;;;;;6.50;1.50;;;23.10;99.90;;;;;;5075608;28;20150;-78
2021/12/13 08:07:20;;;;;;;9.35;1.90;;;;;;;;;;5077326;28;20035;-79
2021/12/13 08:09:49;;;;;;;12.65;2.20;;;;;;;;;;5076264;28;20032;-78
2021/12/13 08:12:19;;;;;;;7.72;1.58;;;;;;;;;;5074717;28;20044;-79
2021/12/13 08:14:48;;;;;;;11.48;1.60;;;;;;;;;;5076480;28;20025;-77
2021/12/13 08:17:31;;;;;;;10.40;2.28;;;;;;;;;;5075786;28;20024;-78
2021/12/13 08:20:07;;;;;;;6.53;1.60;;;;;;;;;;5074677;28;20389;-78
2021/12/13 08:22:34;;;;;;;8.65;2.28;;;;;;;;;;5074168;28;20047;-76
2021/12/13 08:25:04;;;;;;;9.25;1.52;;;;;;;;;;5073920;28;20027;-78
2021/12/13 08:27:35;;;;;;;9.50;1.55;;;;;;;;;;5075114;28;20046;-78
2021/12/13 08:30:16;;;;;;;9.15;2.13;;;;;;;;;;5074274;28;20044;-78
2021/12/13 08:33:02;;;;;;;9.75;1.88;;;;;;;;;;5075429;28;20149;-79
2021/12/13 08:35:46;;;;;;;6.88;1.60;;;;;;;;;;5077954;28;20495;-77
2021/12/13 08:38:23;;;;;;;6.68;1.30;;;;;;;;;;5076461;28;20043;-78
2021/12/13 08:40:51;;;;;;;10.00;1.95;;;;;;;;;;5077220;28;20029;-77
2021/12/13 08:43:32;;;;;;;6.38;1.75;;;;;;;;;;5076620;28;20032;-78
2021/12/13 08:45:59;;;;;;;11.30;2.22;;;;;;;;;;5075265;28;20048;-77
2021/12/13 08:48:26;;;;;;;12.32;2.00;;;;;;;;;;5073985;28;20039;-77
2021/12/13 08:50:55;;;;;;;9.68;1.92;;;;;;;;;;5073413;28;20392;-76
2021/12/13 08:53:26;;;;;;;10.77;2.45;;;;;;;;;;5073658;28;20480;-77
2021/12/13 08:55:57;;;;;;;7.57;2.08;;;;;;;;;;5073673;28;20028;-77
2021/12/13 08:58:24;;;;;;;10.50;2.60;;;;;;;;;;5077693;28;20039;-78
2021/12/13 09:01:09;;;;;;;9.20;2.20;;;;;;;;;;5072930;28;20519;-78
2021/12/13 09:03:52;;;;;;;7.88;2.03;;;;;;;;;;5074913;28;20052;-78
2021/12/13 09:06:20;;;;;;;6.65;1.85;;;;;;;;;;5077193;28;20024;-77
2021/12/13 09:08:51;;;;;;;10.30;2.05;;;;;;;;;;5073866;28;20032;-78
2021/12/13 09:11:18;;;;;;;12.35;2.17;;;;;;;;;;5071897;28;20025;-77
2021/12/13 09:13:45;;;;;;;7.93;1.48;;;;;;;;;;5072771;28;20033;-79
2021/12/13 09:16:15;;;;;;;9.48;2.00;;;;;;;;;;5076662;28;20040;-78
2021/12/13 09:18:43;;;;;;;9.27;1.73;;;;;;;;;;5076011;28;20488;-77
2021/12/13 09:21:13;;;;;;;9.30;1.80;;;;;;;;;;5074562;28;20450;-78
2021/12/13 09:23:44;;;;;;;8.35;1.50;;;;;;;;;;5074850;28;20598;-79
2021/12/13 09:26:10;;;;;;;;;;;;;;;;;;5072955;28;20047;-78
2021/12/13 09:28:43;;;;;;;18.60;2.22;;;;;;;;;;5076593;28;19912;-79
2021/12/13 09:31:22;;;;;;;8.18;1.85;;;;;;;;;;5075904;28;20023;-80
2021/12/13 09:33:51;;;;;;;7.95;1.55;;;;;;;;;;5075691;28;20017;-79
2021/12/13 09:36:18;;;;;;;6.43;1.33;;;;;;;;;;5074617;28;20051;-79
2021/12/13 09:39:04;;;;;;;10.43;1.90;;;;;;;;;;5075042;28;20055;-79
2021/12/13 09:42:09;;;;;;;7.07;1.38;;;;;;;;;;5074860;28;20062;-79
2021/12/13 09:44:39;;;;;;;8.35;1.67;;;;;;;;;;5011749;28;20030;-80
2021/12/13 09:47:06;;;;;;;6.18;2.13;;;;;;;;;;5013745;28;20514;-80
2021/12/13 09:49:39;;;;;;;8.05;1.65;;;;;;;;;;5033828;28;20028;-79
2021/12/13 09:52:07;;;;;;;7.45;1.75;;;;;;;;;;5075781;28;20025;-81
2021/12/13 09:54:37;;;;;;;10.20;1.85;;;;;;;;;;5074772;28;20542;-80
2021/12/13 09:57:08;;;;;;;10.18;2.17;;;;;;;;;;5073113;28;20031;-80
2021/12/13 09:59:41;;;;;;;7.95;1.88;;;19.10;99.90;;;;;;5073266;28;20477;-80
2021/12/13 10:02:19;;;;;;;8.57;1.92;;;19.20;99.90;;;;;;5078266;28;20059;-81
2021/12/13 10:04:49;;;;;;;8.40;1.63;;;19.10;99.90;;;;;;5076427;28;20482;-79
2021/12/13 10:07:23;;;;;;;8.75;1.33;;;19.10;99.90;;;;;;5074156;28;20725;-76
2021/12/13 10:09:58;;;;;;;5.78;1.33;;;19.10;99.90;;;;;;5072842;28;20068;-78
2021/12/13 10:12:39;;;;;;;8.43;1.95;;;19.10;99.90;;;;;;5072766;28;20029;-77
2021/12/13 10:15:15;;;;;;;8.73;1.55;;;19.10;99.90;;;;;;5074038;28;20027;-79
2021/12/13 10:17:48;;;;;;;6.88;1.73;;;19.10;99.90;;;;;;5072402;28;20017;-80
2021/12/13 10:20:34;;;;;;;5.85;1.83;;;19.10;99.90;;;;;;5073599;28;20044;-79
2021/12/13 10:23:02;;;;;;;8.27;1.90;;;19.00;99.90;;;;;;5071491;28;20033;-79
2021/12/13 10:25:36;;;;;;;10.98;1.95;;;19.00;99.90;;;;;;5073190;28;20073;-78
2021/12/13 10:28:12;;;;;;;11.05;2.58;;;19.00;99.90;;;;;;5072071;28;20024;-80
2021/12/13 10:30:48;;;;;;;8.73;2.20;;;19.00;99.90;;;;;;5055840;28;20033;-78
2021/12/13 10:33:17;;;;;;;10.30;1.77;;;19.00;99.90;;;;;;5073946;28;20024;-78
2021/12/13 10:35:47;;;;;;;8.23;1.80;;;19.00;99.90;;;;;;5072861;28;20099;-79
2021/12/13 10:38:22;;;;;;;8.65;1.77;;;18.90;99.90;;;;;;5078643;28;20047;-80
2021/12/13 10:41:00;;;;;;;9.98;1.65;;;18.90;99.90;;;;;;5083510;28;20123;-79
2021/12/13 10:43:36;;;;;;;6.70;1.75;;;18.80;99.90;;;;;;5059174;28;20574;-77
2021/12/13 10:46:12;;;;;;;11.57;2.47;;;18.90;99.90;;;;;;5073483;28;20100;-79
2021/12/13 10:48:45;;;;;;;6.85;1.58;;;18.90;99.90;;;;;;5071582;28;20434;-78
2021/12/13 10:51:21;;;;;;;6.60;1.60;;;18.80;99.90;;;;;;5073618;28;20051;-77
2021/12/13 10:53:53;;;;;;;10.88;1.83;;;18.80;99.90;;;;;;5071800;28;20387;-78
2021/12/13 10:56:32;;;;;;;9.70;1.90;;;18.80;99.90;;;;;;5073338;28;20100;-78
2021/12/13 10:59:05;;;;;;;8.98;1.40;;;18.80;99.90;;;;;;5072953;28;20020;-75
2021/12/13 11:01:41;;;;;;;9.68;1.75;;;18.90;99.90;;;;;;5072806;28;20411;-76
2021/12/13 11:04:13;;;;;;;11.07;2.25;;;18.90;99.90;;;;;;5074338;28;20028;-78
2021/12/13 11:06:42;;;;;;;7.50;1.65;;;18.90;99.90;;;;;;5073708;28;20028;-77
2021/12/13 11:09:13;;;;;;;10.25;1.80;;;18.90;99.90;;;;;;5081422;28;20054;-78
2021/12/13 11:11:47;;;;;;;9.10;1.50;;;18.80;99.90;;;;;;5076573;28;20017;-78
2021/12/13 11:14:20;;;;;;;8.30;1.52;;;18.80;99.90;;;;;;5072519;28;20024;-77
2021/12/13 11:16:56;;;;;;;10.95;1.58;;;18.80;99.90;;;;;;5072664;28;20040;-78
2021/12/13 11:19:27;;;;;;;10.82;1.83;;;18.80;99.90;;;;;;5073958;28;20064;-78
2021/12/13 11:22:01;;;;;;;8.13;1.38;;;18.70;99.90;;;;;;5078770;28;20096;-79
2021/12/13 11:24:34;;;;;;;7.38;1.45;;;18.70;99.90;;;;;;5074333;28;20123;-78
2021/12/13 11:27:23;;;;;;;13.55;2.20;;;18.70;99.90;;;;;;5073706;28;20551;-79
2021/12/13 11:29:52;;;;;;;6.68;1.60;;;18.60;99.90;;;;;;5073105;28;20032;-79
2021/12/13 11:32:38;;;;;;;10.32;2.25;;;18.60;99.90;;;;;;5074448;28;20035;-79
2021/12/13 11:35:11;;;;;;;11.35;1.92;;;18.60;99.90;;;;;;5077611;28;20496;-79
2021/12/13 11:38:16;;;;;;;12.45;1.77;;;18.60;99.90;;;;;;5078345;28;20066;-79
2021/12/13 11:41:07;;;;;;;8.20;1.75;;;18.70;99.90;;;;;;5080617;28;20028;-79
2021/12/13 11:43:58;;;;;;;9.05;1.95;;;18.70;99.90;;;;;;5078979;28;20024;-78
2021/12/13 11:47:02;;;;;;;8.07;1.98;;;18.80;99.90;;;;;;5084897;28;20044;-78
2021/12/13 11:49:51;;;;;;;8.95;1.60;;;18.80;99.90;;;;;;5081373;28;20035;-79
2021/12/13 11:52:34;;;;;;;8.40;1.77;;;18.90;99.90;;;;;;5084464;28;20024;-78
2021/12/13 11:55:19;;;;;;;10.30;1.73;;;18.90;99.90;;;;;;5083051;28;20024;-78
2021/12/13 11:58:34;;;;;;;8.15;1.65;;;19.00;99.90;;;;;;5085092;28;20028;-78
2021/12/13 12:01:40;;;;;;;7.22;1.60;;;19.00;99.90;;;;;;5084296;28;20028;-79
2021/12/13 12:04:44;;;;;;;7.72;1.45;;;19.00;99.90;;;;;;5082132;28;20029;-80
2021/12/13 12:07:14;;;;;;;11.27;2.17;;;19.00;99.90;;;;;;5080086;28;20024;-78
2021/12/13 12:10:13;;;;;;;5.38;1.45;;;19.00;99.90;;;;;;5081000;28;20070;-79
2021/12/13 12:13:01;;;;;;;8.60;1.80;;;19.10;99.90;;;;;;5092429;28;20035;-80
2021/12/13 12:15:29;;;;;;;11.00;1.70;;;19.00;99.90;;;;;;5088826;28;20027;-79
2021/12/13 12:18:01;;;;;;;8.30;1.92;;;19.10;99.90;;;;;;5095441;28;20028;-79
2021/12/13 12:20:36;;;;;;;9.95;1.92;;;19.00;99.90;;;;;;5093948;28;20080;-80
2021/12/13 12:23:10;;;;;;;8.32;1.50;;;19.00;99.90;;;;;;5092367;28;20031;-79
2021/12/13 12:25:40;;;;;;;8.90;1.80;;;19.00;99.90;;;;;;5091635;28;20029;-79
2021/12/13 12:28:13;;;;;;;7.00;1.42;;;18.90;99.90;;;;;;5096123;28;20096;-78
2021/12/13 12:30:46;;;;;;;10.30;1.65;;;19.00;99.90;;;;;;5094651;28;20029;-79
2021/12/13 12:33:32;;;;;;;6.70;1.67;;;18.90;99.90;;;;;;5095723;28;20031;-79
2021/12/13 12:36:04;;;;;;;9.77;1.67;;;18.90;99.90;;;;;;5079273;28;20020;-79
2021/12/13 12:38:35;;;;;;;11.27;1.95;;;18.90;99.90;;;;;;5093127;28;20005;-79
2021/12/13 12:41:08;;;;;;;6.93;1.80;;;18.90;99.90;;;;;;5093886;28;20031;-79
2021/12/13 12:43:40;;;;;;;9.50;1.65;;;18.90;99.90;;;;;;5091561;28;20056;-78
2021/12/13 12:46:13;;;;;;;9.55;2.10;;;18.80;99.90;;;;;;5093587;28;20028;-78
2021/12/13 12:48:46;;;;;;;6.82;1.65;;;18.80;99.90;;;;;;5095147;28;20028;-79
2021/12/13 12:51:21;;;;;;;11.18;1.65;;;18.80;99.90;;;;;;5094555;28;20016;-78
2021/12/13 12:54:06;;;;;;;8.43;1.48;;;18.70;99.90;;;;;;5090845;28;20020;-78
2021/12/13 12:56:49;;;;;;;7.88;2.13;;;18.70;99.90;;;;;;5090534;28;20031;-78
2021/12/13 12:59:19;;;;;;;7.65;1.88;;;18.60;99.90;;;;;;5091042;28;20024;-78
2021/12/13 13:01:57;;;;;;;10.55;1.92;;;18.50;99.90;;;;;;5088041;28;20070;-78
2021/12/13 13:04:31;;;;;;;7.72;1.77;;;18.50;99.90;;;;;;5088724;28;20033;-78
2021/12/13 13:07:18;;;;;;;6.57;1.52;;;18.50;99.90;;;;;;5084845;28;20059;-78
2021/12/13 13:09:45;;;;;;;8.45;1.85;;;18.40;99.90;;;;;;5079668;28;20025;-78
2021/12/13 13:12:25;;;;;;;11.07;2.03;;;18.40;99.90;;;;;;5085971;28;20044;-78
2021/12/13 13:14:59;;;;;;;11.07;2.17;;;18.30;99.90;;;;;;5086926;28;20421;-78
2021/12/13 13:17:32;;;;;;;13.27;2.00;;;18.30;99.90;;;;;;5089365;28;20021;-77
2021/12/13 13:20:08;;;;;;;8.27;2.20;;;18.20;99.90;;;;;;5092936;28;20037;-78
2021/12/13 13:22:41;;;;;;;12.35;2.13;;;18.10;99.90;;;;;;5093332;28;20096;-78
2021/12/13 13:25:21;;;;;;;10.68;1.88;;;18.10;99.90;;;;;;5091407;28;20004;-78
2021/12/13 13:27:48;;;;;;;11.23;2.00;;;18.10;99.90;;;;;;5090899;28;20029;-78
2021/12/13 13:30:41;;;;;;;11.93;2.88;;;18.10;99.90;;;;;;5091653;28;20033;-79
2021/12/13 13:33:10;;;;;;;10.43;2.38;;;18.00;99.90;;;;;;5088386;28;20036;-78
2021/12/13 13:35:37;;;;;;;11.00;2.30;;;18.00;99.90;;;;;;5091525;28;20050;-77
2021/12/13 13:38:13;;;;;;;10.18;1.90;;;17.90;99.90;;;;;;5085570;28;20020;-80
2021/12/13 13:40:41;;;;;;;10.18;1.88;;;17.90;99.90;;;;;;5092144;28;20024;-78
2021/12/13 13:43:11;;;;;;;8.02;1.90;;;17.90;99.90;;;;;;5078313;28;20366;-77
2021/12/13 13:45:47;;;;;;;8.30;2.58;;;17.80;99.90;;;;;;5072935;28;20028;-77
2021/12/13 13:48:27;;;;;;;9.50;1.85;;;17.80;99.90;;;;;;5074487;28;20021;-78
2021/12/13 13:50:58;;;;;;;10.52;2.03;;;17.70;99.90;;;;;;5074457;28;20056;-77
2021/12/13 13:53:42;;;;;;;7.70;2.03;;;17.70;99.90;;;;;;5074436;28;20020;-77
2021/12/13 13:56:36;;;;;;;9.75;2.00;;;17.70;99.90;;;;;;5072585;28;20028;-77
2021/12/13 13:59:10;;;;;;;7.90;1.80;;;17.70;99.90;;;;;;5073682;28;20036;-77
2021/12/13 14:01:43;;;;;;;;;;;17.70;99.90;;;;;;5073759;28;20032;-78
2021/12/13 14:04:34;;;;;;;9.52;2.40;;;17.70;99.90;;;;;;5074177;28;19911;-77
2021/12/13 14:07:10;;;;;;;9.38;2.13;;;17.70;99.90;;;;;;5056919;28;20086;-77
2021/12/13 14:09:44;;;;;;;9.80;1.55;;;17.70;99.90;;;;;;5073875;28;20043;-77
2021/12/13 14:12:36;;;;;;;10.13;2.20;;;17.80;99.90;;;;;;5072212;28;20020;-76